Time;durP1;ratioP1;P1;durP2;ratioP2;P2;SDS_P1;SDS_P2;PMS_P1;PMS_P2;Temp;Humidity;BMP_temperature;BMP_pressure;BME280_temperature;BME280_humidity;BME280_pressure;Samples;Min_cycle;Max_cycle;Signal;HPM_P1;HPM_P2
2023/06/19 00:01:54;;;;;;;8.10;6.88;;;;;;;23.99;35.77;96281.47;4917778;29;20044;-77
2023/06/19 00:04:23;;;;;;;12.68;7.05;;;;;;;23.96;35.87;96282.00;4917797;29;20469;-74
2023/06/19 00:06:51;;;;;;;9.57;6.80;;;;;;;23.89;36.28;96276.19;4917418;29;20433;-77
2023/06/19 00:09:19;;;;;;;7.30;6.60;;;;;;;23.83;36.26;96278.06;4917550;29;20405;-75
2023/06/19 00:11:46;;;;;;;7.40;6.70;;;;;;;23.79;36.74;96280.50;4917372;29;20186;-75
2023/06/19 00:14:14;;;;;;;7.07;6.38;;;;;;;23.74;36.60;96280.47;4917588;29;20056;-75
2023/06/19 00:16:42;;;;;;;7.03;6.30;;;;;;;23.70;36.41;96286.63;4917207;29;20056;-76
2023/06/19 00:19:10;;;;;;;8.13;6.60;;;;;;;23.66;36.92;96283.72;4916954;29;20076;-76
2023/06/19 00:21:39;;;;;;;7.13;6.45;;;;;;;23.63;36.82;96284.25;4917602;29;20052;-76
2023/06/19 00:24:07;;;;;;;9.38;7.15;;;;;;;23.59;37.03;96283.22;4917155;29;20056;-76
2023/06/19 00:26:34;;;;;;;7.90;7.13;;;;;;;23.54;36.69;96289.34;4916953;29;20048;-75
2023/06/19 00:29:02;;;;;;;8.55;7.18;;;;;;;23.51;37.18;96286.47;4917139;29;20107;-75
2023/06/19 00:31:30;;;;;;;9.40;7.05;;;;;;;23.47;37.33;96282.75;4917106;29;20358;-75
2023/06/19 00:33:58;;;;;;;8.15;6.93;;;;;;;23.43;37.38;96285.94;4916896;29;20576;-75
2023/06/19 00:36:26;;;;;;;8.45;7.07;;;;;;;23.41;37.48;96288.06;4916813;29;20501;-75
2023/06/19 00:38:56;;;;;;;8.77;7.20;;;;;;;23.38;37.79;96283.28;4916989;29;20052;-75
2023/06/19 00:41:26;;;;;;;8.32;6.65;;;;;;;23.34;37.64;96284.91;4917173;29;20103;-75
2023/06/19 00:43:54;;;;;;;10.60;7.10;;;;;;;23.30;37.98;96288.38;4919622;29;20080;-76
2023/06/19 00:46:21;;;;;;;8.70;7.80;;;;;;;23.26;38.14;96287.31;4926807;29;20064;-76
2023/06/19 00:48:49;;;;;;;7.88;7.00;;;;;;;23.22;38.28;96289.72;4916830;29;20508;-76
2023/06/19 00:51:17;;;;;;;7.88;7.07;;;;;;;23.25;37.71;96307.81;4916660;29;20551;-76
2023/06/19 00:53:45;;;;;;;9.75;7.55;;;;;;;23.31;37.77;96298.75;4916638;29;20120;-76
2023/06/19 00:56:15;;;;;;;9.50;7.40;;;;;;;23.36;37.85;96301.41;4916632;29;20080;-76
2023/06/19 00:58:43;;;;;;;7.75;7.05;;;;;;;23.41;37.67;96300.59;4916837;29;20048;-76
2023/06/19 01:01:10;;;;;;;8.70;6.68;;;;;;;23.44;37.23;96308.03;4916570;29;20476;-76
2023/06/19 01:03:38;;;;;;;7.38;6.68;;;;;;;23.49;37.17;96304.56;4916688;29;20064;-76
2023/06/19 01:06:14;;;;;;;7.72;6.93;;;;;;;23.52;37.27;96302.13;4916291;29;20083;-76
2023/06/19 01:08:50;;;;;;;9.07;6.93;;;;;;;23.55;37.23;96308.78;4916732;29;20143;-76
2023/06/19 01:11:24;;;;;;;7.57;6.88;;;;;;;23.55;37.22;96309.59;4916554;29;20405;-75
2023/06/19 01:13:57;;;;;;;7.10;6.45;;;;;;;23.58;36.94;96302.94;4916392;29;20056;-76
2023/06/19 01:16:26;;;;;;;12.52;7.45;;;;;;;23.60;36.91;96303.47;4916330;29;20052;-75
2023/06/19 01:18:54;;;;;;;7.88;7.10;;;;;;;23.63;37.22;96305.56;4916574;29;20059;-75
2023/06/19 01:21:21;;;;;;;8.95;7.20;;;;;;;23.66;37.38;96310.34;4916592;29;20048;-75
2023/06/19 01:23:50;;;;;;;8.05;7.25;;;;;;;23.67;37.08;96311.94;4916424;29;20087;-75
2023/06/19 01:26:18;;;;;;;9.52;6.85;;;;;;;23.67;37.54;96306.63;4915988;29;20048;-75
2023/06/19 01:28:46;;;;;;;7.57;6.88;;;;;;;23.67;37.20;96314.59;4916165;29;20047;-77
2023/06/19 01:31:21;;;;;;;8.63;6.80;;;;;;;23.65;37.84;96303.44;4915945;29;20085;-76
2023/06/19 01:33:51;;;;;;;9.02;7.10;;;;;;;23.63;37.39;96302.91;4916103;29;20083;-75
2023/06/19 01:36:21;;;;;;;8.13;7.32;;;;;;;23.62;36.75;96312.75;4916173;29;20084;-75
2023/06/19 01:38:51;;;;;;;9.55;6.07;;;;;;;23.62;36.63;96314.63;4915927;29;20126;-75
2023/06/19 01:41:20;;;;;;;7.47;6.75;;;;;;;23.63;36.65;96314.34;4915836;29;20512;-76
2023/06/19 01:43:48;;;;;;;8.57;6.80;;;;;;;23.66;36.92;96318.34;4915701;29;20461;-75
2023/06/19 01:46:16;;;;;;;8.52;7.10;;;;;;;23.67;36.61;96322.59;4915586;29;20568;-75
2023/06/19 01:48:43;;;;;;;6.75;6.15;;;;;;;23.68;36.87;96320.72;4915625;29;20048;-76
2023/06/19 01:51:11;;;;;;;8.13;7.32;;;;;;;23.68;37.13;96324.19;4915739;29;20104;-76
2023/06/19 01:53:39;;;;;;;10.13;7.32;;;;;;;23.65;37.46;96324.72;4915698;29;20083;-75
2023/06/19 01:56:08;;;;;;;7.90;7.10;;;;;;;23.62;37.60;96322.63;4915237;29;20119;-75
2023/06/19 01:58:35;;;;;;;8.00;7.28;;;;;;;23.57;37.42;96317.28;4915738;29;20441;-76
2023/06/19 02:01:03;;;;;;;9.43;8.05;;;;;;;23.50;37.63;96317.59;4915761;29;20052;-75
2023/06/19 02:03:31;;;;;;;8.95;7.78;;;;;;;23.43;37.99;96314.41;4915638;29;20201;-75
2023/06/19 02:05:58;;;;;;;7.30;6.50;;;;;;;23.37;38.27;96326.94;4915512;29;20080;-75
2023/06/19 02:08:26;;;;;;;8.80;7.88;;;;;;;23.34;38.13;96322.16;4915569;29;20402;-75
2023/06/19 02:10:53;;;;;;;9.70;7.40;;;;;;;23.30;38.47;96323.75;4915723;29;20059;-74
2023/06/19 02:13:22;;;;;;;8.73;7.35;;;;;;;23.24;38.18;96323.00;4915454;29;20501;-75
2023/06/19 02:15:51;;;;;;;8.45;7.32;;;;;;;23.20;38.75;96323.81;4915143;29;20497;-75
2023/06/19 02:18:18;;;;;;;8.55;7.47;;;;;;;23.16;38.44;96317.41;4915513;29;20059;-75
2023/06/19 02:20:46;;;;;;;8.38;7.10;;;;;;;23.10;38.45;96308.63;4915351;29;20056;-75
2023/06/19 02:23:13;;;;;;;9.40;6.88;;;;;;;23.04;38.70;96309.72;4915377;29;20075;-75
2023/06/19 02:25:41;;;;;;;8.27;7.38;;;;;;;23.01;38.97;96316.38;4915556;29;20056;-75
2023/06/19 02:28:09;;;;;;;8.07;7.05;;;;;;;22.98;39.11;96311.56;4915728;29;20056;-75
2023/06/19 02:30:37;;;;;;;8.57;7.68;;;;;;;22.95;39.76;96317.41;4915494;29;20575;-75
2023/06/19 02:33:05;;;;;;;7.50;6.72;;;;;;;22.93;39.25;96314.22;4915403;29;20500;-75
2023/06/19 02:35:33;;;;;;;8.65;7.75;;;;;;;22.91;39.50;96315.53;4915699;29;20087;-75
2023/06/19 02:38:00;;;;;;;9.30;8.35;;;;;;;22.84;39.81;96327.25;4915702;29;20087;-75
2023/06/19 02:40:28;;;;;;;8.05;6.95;;;;;;;22.81;39.83;96342.94;4915518;29;20056;-75
2023/06/19 02:42:55;;;;;;;9.68;7.45;;;;;;;22.81;40.12;96361.56;4915456;29;20512;-75
2023/06/19 02:45:23;;;;;;;8.88;7.35;;;;;;;22.82;39.93;96371.13;4915534;29;20056;-75
2023/06/19 02:47:53;;;;;;;8.75;7.60;;;;;;;22.83;40.16;96378.84;4915209;29;20051;-75
2023/06/19 02:50:21;;;;;;;9.43;7.80;;;;;;;22.83;40.16;96381.50;4915143;29;20124;-75
2023/06/19 02:52:49;;;;;;;9.75;7.15;;;;;;;22.84;39.99;96382.31;4915462;29;20056;-75
2023/06/19 02:55:17;;;;;;;8.70;7.22;;;;;;;22.83;40.48;96378.06;4915220;29;20054;-75
2023/06/19 02:57:44;;;;;;;8.25;7.35;;;;;;;22.83;40.21;96383.38;4915551;29;20595;-74
2023/06/19 03:00:13;;;;;;;7.53;6.43;;;;;;;22.86;40.25;96393.47;4915321;29;20067;-75
2023/06/19 03:02:43;;;;;;;6.57;5.95;;;;;;;22.88;40.13;96386.03;4915096;29;20052;-75
2023/06/19 03:05:14;;;;;;;7.90;7.10;;;;;;;22.90;40.66;96389.22;4915612;29;20056;-75
2023/06/19 03:07:42;;;;;;;7.33;6.50;;;;;;;22.90;40.86;96388.44;4915848;29;20155;-75
2023/06/19 03:10:10;;;;;;;6.45;5.85;;;;;;;22.86;41.11;96385.50;4920891;29;20083;-75
2023/06/19 03:12:38;;;;;;;6.13;5.63;;;;;;;22.87;41.38;96388.94;4920669;29;20096;-75
2023/06/19 03:15:06;;;;;;;9.02;6.10;;;;;;;22.86;41.18;96393.47;4918189;29;20064;-75
2023/06/19 03:17:34;;;;;;;7.70;6.70;;;;;;;22.81;41.62;96393.47;4917988;29;20556;-75
2023/06/19 03:20:02;;;;;;;8.13;6.65;;;;;;;22.75;41.96;96386.56;4918270;29;20139;-74
2023/06/19 03:22:31;;;;;;;7.93;6.30;;;;;;;22.67;42.34;96398.50;4918346;29;20056;-75
2023/06/19 03:24:58;;;;;;;10.07;7.05;;;;;;;22.59;42.48;96394.50;4918233;29;20144;-75
2023/06/19 03:27:26;;;;;;;8.35;7.35;;;;;;;22.52;42.79;96398.47;4918125;29;20056;-75
2023/06/19 03:29:54;;;;;;;9.80;6.65;;;;;;;22.47;42.53;96404.56;4918028;29;20056;-75
2023/06/19 03:32:21;;;;;;;10.15;7.30;;;;;;;22.42;42.82;96399.25;4918693;29;20048;-75
2023/06/19 03:34:49;;;;;;;9.95;6.63;;;;;;;22.39;43.30;96400.59;4918102;29;20044;-75
2023/06/19 03:37:17;;;;;;;7.60;6.82;;;;;;;22.37;43.15;96405.38;4918126;29;20048;-74
2023/06/19 03:39:46;;;;;;;7.40;6.75;;;;;;;22.36;43.31;96400.31;4918225;29;20086;-75
2023/06/19 03:42:13;;;;;;;9.73;6.95;;;;;;;22.32;43.27;96407.19;4918066;29;20055;-75
2023/06/19 03:44:41;;;;;;;8.82;6.57;;;;;;;22.28;43.52;96408.78;4917875;29;20076;-75
2023/06/19 03:47:09;;;;;;;7.82;7.00;;;;;;;22.24;43.82;96408.50;4918135;29;20135;-76
2023/06/19 03:49:36;;;;;;;7.80;6.53;;;;;;;22.20;43.83;96408.19;4918387;29;20055;-75
2023/06/19 03:52:04;;;;;;;7.97;6.93;;;;;;;22.17;44.03;96414.03;4918229;29;20080;-75
2023/06/19 03:54:32;;;;;;;7.30;6.43;;;;;;;22.16;44.32;96415.09;4917853;29;20052;-76
2023/06/19 03:57:01;;;;;;;7.18;6.57;;;;;;;22.17;44.49;96408.72;4917744;29;20094;-74
2023/06/19 03:59:29;;;;;;;9.18;7.00;;;;;;;22.19;44.75;96406.59;4918020;29;20103;-75
2023/06/19 04:01:56;;;;;;;6.60;6.00;;;;;;;22.18;44.86;96410.31;4918201;29;20056;-76
2023/06/19 04:04:25;;;;;;;7.13;6.38;;;;;;;22.19;45.05;96422.56;4918128;29;20055;-75
2023/06/19 04:06:52;;;;;;;7.85;6.68;;;;;;;22.20;44.77;96423.34;4917881;29;20056;-75
2023/06/19 04:09:20;;;;;;;7.05;6.03;;;;;;;22.20;44.87;96426.78;4917702;29;20052;-75
2023/06/19 04:11:48;;;;;;;8.25;6.70;;;;;;;22.20;44.98;96429.44;4918176;29;20106;-76
2023/06/19 04:14:17;;;;;;;8.30;6.35;;;;;;;22.20;45.31;96429.44;4926184;29;20048;-75
2023/06/19 04:16:44;;;;;;;6.82;6.10;;;;;;;22.21;45.38;96431.06;4927627;29;20107;-75
2023/06/19 04:19:12;;;;;;;6.43;5.55;;;;;;;22.25;44.91;96431.34;4918016;29;20059;-75
2023/06/19 04:21:40;;;;;;;10.77;6.07;;;;;;;22.29;45.58;96431.63;4920998;29;20056;-75
2023/06/19 04:24:09;;;;;;;8.90;7.18;;;;;;;22.29;45.60;96437.75;4925345;29;20051;-75
2023/06/19 04:26:36;;;;;;;8.02;6.35;;;;;;;22.31;45.53;96442.81;4926005;29;20060;-75
2023/06/19 04:29:05;;;;;;;14.45;6.82;;;;;;;22.34;45.44;96434.31;4920913;29;20072;-75
2023/06/19 04:31:40;;;;;;;8.27;6.32;;;;;;;22.40;45.46;96438.59;4920857;29;20052;-77
2023/06/19 04:34:09;;;;;;;6.80;6.10;;;;;;;22.45;45.18;96430.63;4907419;29;20048;-79
2023/06/19 04:36:37;;;;;;;9.65;6.97;;;;;;;22.48;45.43;96443.41;4909503;29;20083;-78
2023/06/19 04:39:05;;;;;;;10.38;6.65;;;;;;;22.53;46.02;96445.28;4925236;29;20068;-83
2023/06/19 04:41:38;;;;;;;9.50;7.03;;;;;;;22.54;45.91;96450.34;4907649;29;20056;-77
2023/06/19 04:44:06;;;;;;;12.40;6.68;;;;;;;22.57;46.15;96446.34;4913700;29;20127;-81
2023/06/19 04:46:39;;;;;;;13.23;6.90;;;;;;;22.57;47.15;96449.81;4924492;29;20060;-80
2023/06/19 04:49:06;;;;;;;13.32;6.63;;;;;;;22.56;46.78;96453.50;4924318;29;20220;-80
2023/06/19 04:51:34;;;;;;;13.23;6.75;;;;;;;22.55;46.89;96454.56;4927090;29;20095;-81
2023/06/19 04:54:03;;;;;;;11.85;6.72;;;;;;;22.57;47.29;96456.97;4908632;29;20053;-79
2023/06/19 04:56:32;;;;;;;8.15;5.90;;;;;;;22.59;46.90;96457.53;4911970;29;20052;-81
2023/06/19 04:59:01;;;;;;;7.40;5.97;;;;;;;22.60;46.99;96459.91;4925312;29;20576;-81
2023/06/19 05:01:29;;;;;;;6.60;5.90;;;;;;;22.66;46.93;96467.91;4923025;29;20060;-79
2023/06/19 05:03:59;;;;;;;7.28;5.30;;;;;;;22.69;47.44;96475.34;4923643;29;20524;-79
2023/06/19 05:06:27;;;;;;;5.72;5.07;;;;;;;22.71;47.48;96474.03;4921642;29;20067;-77
2023/06/19 05:08:54;;;;;;;5.75;5.15;;;;;;;22.77;47.80;96480.16;4918625;29;20084;-77
2023/06/19 05:11:22;;;;;;;4.85;4.45;;;;;;;22.80;47.64;96485.72;4918273;29;20103;-77
2023/06/19 05:13:50;;;;;;;6.88;5.00;;;;;;;22.86;47.51;96486.56;4923067;29;20055;-85
2023/06/19 05:16:19;;;;;;;7.45;4.93;;;;;;;22.91;47.64;96486.56;4926843;29;20083;-85
2023/06/19 05:18:47;;;;;;;5.55;4.72;;;;;;;22.94;47.29;96491.38;4925806;29;20076;-82
2023/06/19 05:21:17;;;;;;;3.80;3.50;;;;;;;22.99;47.44;96488.72;4922791;29;20124;-84
2023/06/19 05:23:44;;;;;;;4.25;3.47;;;;;;;23.07;47.37;96497.25;4914999;29;20056;-84
2023/06/19 05:26:12;;;;;;;5.68;3.50;;;;;;;23.14;47.14;96497.81;4920601;29;20409;-73
2023/06/19 05:28:39;;;;;;;4.03;3.70;;;;;;;23.20;47.27;96494.09;4919677;29;20517;-74
2023/06/19 05:31:07;;;;;;;5.20;3.90;;;;;;;23.22;47.02;96491.94;4916153;29;20425;-74
2023/06/19 05:33:34;;;;;;;4.22;3.83;;;;;;;23.23;46.78;96496.22;4917001;29;20056;-77
2023/06/19 05:36:02;;;;;;;4.40;3.88;;;;;;;23.23;47.34;96488.25;4916078;29;20052;-76
2023/06/19 05:38:31;;;;;;;6.97;3.70;;;;;;;23.24;47.05;96489.81;4911889;29;20108;-75
2023/06/19 05:40:59;;;;;;;4.63;3.85;;;;;;;23.26;47.51;96494.88;4909949;29;20056;-77
2023/06/19 05:43:27;;;;;;;3.80;3.47;;;;;;;23.28;47.60;96498.88;4928111;29;20088;-76
2023/06/19 05:45:55;;;;;;;5.28;4.03;;;;;;;23.27;47.52;96491.97;4924363;29;20045;-76
2023/06/19 05:48:24;;;;;;;5.40;4.40;;;;;;;23.28;47.42;96503.41;4916603;29;20059;-77
2023/06/19 05:50:52;;;;;;;7.82;4.00;;;;;;;23.28;47.68;96498.88;4915522;29;20052;-76
2023/06/19 05:53:20;;;;;;;3.88;3.30;;;;;;;23.29;47.67;96502.34;4914963;29;20048;-76
2023/06/19 05:55:49;;;;;;;4.35;3.92;;;;;;;23.30;47.97;96502.06;4913945;29;20103;-76
2023/06/19 05:58:19;;;;;;;4.05;3.58;;;;;;;23.30;47.75;96499.41;4914223;29;20087;-77
2023/06/19 06:00:47;;;;;;;3.72;3.28;;;;;;;23.31;47.50;96508.19;4913961;29;20461;-77
2023/06/19 06:03:15;;;;;;;4.80;3.70;;;;;;;23.31;47.39;96511.66;4914863;29;20063;-76
2023/06/19 06:05:43;;;;;;;3.50;3.20;;;;;;;23.28;47.66;96512.19;4915993;29;20048;-76
2023/06/19 06:08:10;;;;;;;3.40;3.10;;;;;;;23.26;47.47;96518.84;4915652;29;20123;-77
2023/06/19 06:10:39;;;;;;;5.28;3.80;;;;;;;23.25;47.76;96510.06;4915913;29;20056;-77
2023/06/19 06:13:08;;;;;;;4.63;4.15;;;;;;;23.27;47.61;96523.91;4915423;29;20052;-76
2023/06/19 06:15:35;;;;;;;4.72;4.07;;;;;;;23.29;48.04;96523.66;4915428;29;20139;-76
2023/06/19 06:18:04;;;;;;;3.85;3.55;;;;;;;23.29;47.60;96519.13;4915566;29;20055;-76
2023/06/19 06:20:32;;;;;;;3.83;3.42;;;;;;;23.32;47.26;96521.25;4915228;29;20060;-76
2023/06/19 06:23:00;;;;;;;5.50;3.47;;;;;;;23.35;47.16;96518.06;4915280;29;20087;-77
2023/06/19 06:25:28;;;;;;;5.18;3.58;;;;;;;23.38;47.49;96514.84;4915561;29;20052;-76
2023/06/19 06:27:55;;;;;;;3.95;3.55;;;;;;;23.41;47.04;96519.63;4915377;29;20111;-76
2023/06/19 06:30:24;;;;;;;3.80;3.50;;;;;;;23.45;46.95;96526.03;4915541;29;20084;-76
2023/06/19 06:32:53;;;;;;;4.22;3.67;;;;;;;23.48;47.15;96522.03;4915352;29;20052;-76
2023/06/19 06:35:21;;;;;;;4.07;3.38;;;;;;;23.53;46.97;96534.56;4915167;29;20060;-76
2023/06/19 06:37:49;;;;;;;5.63;3.75;;;;;;;23.56;46.74;96534.03;4915213;29;20080;-77
2023/06/19 06:40:18;;;;;;;5.53;3.67;;;;;;;23.58;46.77;96547.88;4915425;29;20078;-78
2023/06/19 06:42:47;;;;;;;3.80;3.47;;;;;;;23.59;46.85;96552.13;4915903;29;20099;-77
2023/06/19 06:45:14;;;;;;;3.38;3.05;;;;;;;23.62;47.03;96554.28;4918936;29;20127;-76
2023/06/19 06:47:43;;;;;;;3.50;3.08;;;;;;;23.68;47.24;96558.53;4918600;29;20056;-76
2023/06/19 06:50:11;;;;;;;3.78;3.20;;;;;;;23.72;47.00;96548.94;4919066;29;20052;-76
2023/06/19 06:52:39;;;;;;;3.30;3.00;;;;;;;23.75;47.34;96547.63;4918949;29;20056;-77
2023/06/19 06:55:07;;;;;;;3.75;3.45;;;;;;;23.78;47.10;96553.22;4918432;29;20095;-77
2023/06/19 06:57:35;;;;;;;3.17;2.88;;;;;;;23.80;47.22;96555.63;4918885;29;20056;-77
2023/06/19 07:00:03;;;;;;;3.05;2.85;;;;;;;23.87;46.96;96555.34;4918434;29;20178;-78
2023/06/19 07:02:30;;;;;;;3.15;2.88;;;;;;;23.93;47.02;96554.28;4918572;29;20535;-78
2023/06/19 07:05:00;;;;;;;4.55;2.75;;;;;;;23.96;47.16;96556.41;4918311;29;20087;-78
2023/06/19 07:07:27;;;;;;;5.03;2.90;;;;;;;24.00;46.41;96554.81;4918353;29;20059;-77
2023/06/19 07:09:55;;;;;;;2.63;2.42;;;;;;;24.12;46.29;96544.66;4918236;29;20052;-78
2023/06/19 07:12:22;;;;;;;3.00;2.70;;;;;;;24.24;46.10;96553.16;4918433;29;20492;-77
2023/06/19 07:14:50;;;;;;;3.03;2.67;;;;;;;24.35;46.11;96555.81;4917996;29;20143;-77
2023/06/19 07:17:17;;;;;;;2.58;2.38;;;;;;;24.46;45.41;96552.03;4918231;29;20501;-77
2023/06/19 07:19:47;;;;;;;2.92;2.35;;;;;;;24.51;45.31;96567.25;4917891;29;20508;-77
2023/06/19 07:22:16;;;;;;;3.80;2.08;;;;;;;24.54;45.26;96561.38;4918201;29;20142;-77
2023/06/19 07:24:44;;;;;;;2.90;2.55;;;;;;;24.58;45.60;96563.22;4917802;29;20508;-78
2023/06/19 07:27:12;;;;;;;2.55;2.35;;;;;;;24.66;45.49;96567.19;4917860;29;20143;-78
2023/06/19 07:29:39;;;;;;;3.20;2.28;;;;;;;24.78;45.30;96566.88;4917945;29;20221;-77
2023/06/19 07:32:08;;;;;;;3.60;2.30;;;;;;;24.87;44.94;96575.91;4917953;29;20055;-77
2023/06/19 07:34:35;;;;;;;2.30;2.10;;;;;;;24.94;44.61;96578.28;4917893;29;20182;-77
2023/06/19 07:37:03;;;;;;;2.88;2.30;;;;;;;24.99;44.43;96576.41;4917622;29;20131;-77
2023/06/19 07:39:32;;;;;;;6.60;3.00;;;;;;;25.09;44.50;96578.19;4917683;29;20202;-76
2023/06/19 07:42:00;;;;;;;2.60;2.40;;;;;;;25.17;44.30;96576.84;4917601;29;20516;-76
2023/06/19 07:44:27;;;;;;;2.58;2.38;;;;;;;25.23;44.08;96568.56;4917573;29;20056;-77
2023/06/19 07:46:55;;;;;;;2.25;2.05;;;;;;;25.33;43.64;96569.56;4917499;29;20115;-77
2023/06/19 07:49:23;;;;;;;2.45;2.17;;;;;;;25.45;43.75;96568.16;4917480;29;20052;-76
2023/06/19 07:51:50;;;;;;;2.97;2.20;;;;;;;25.55;43.50;96563.81;4917465;29;20103;-77
2023/06/19 07:54:18;;;;;;;2.20;2.10;;;;;;;25.64;43.19;96564.78;4916918;29;20104;-77
2023/06/19 07:56:47;;;;;;;2.13;1.90;;;;;;;25.72;42.59;96563.41;4917451;29;20087;-77
2023/06/19 07:59:14;;;;;;;2.97;2.22;;;;;;;25.78;42.53;96568.44;4917463;29;20131;-77
2023/06/19 08:01:42;;;;;;;2.80;2.00;;;;;;;25.82;42.57;96569.47;4917491;29;20411;-77
2023/06/19 08:04:09;;;;;;;1.88;1.77;;;;;;;25.84;42.58;96564.59;4917289;29;20123;-77
2023/06/19 08:06:37;;;;;;;2.08;1.85;;;;;;;25.81;42.78;96559.84;4917133;29;20099;-77
2023/06/19 08:09:05;;;;;;;2.30;2.03;;;;;;;25.85;42.79;96560.88;4916912;29;20076;-77
2023/06/19 08:11:32;;;;;;;2.55;1.63;;;;;;;25.86;42.45;96562.47;4917452;29;20409;-77
2023/06/19 08:14:01;;;;;;;1.90;1.52;;;;;;;25.86;42.82;96570.47;4917422;29;20056;-77
2023/06/19 08:16:29;;;;;;;2.22;1.70;;;;;;;25.89;42.36;96572.63;4917032;29;20056;-76
2023/06/19 08:18:57;;;;;;;2.58;1.40;;;;;;;25.90;42.20;96574.22;4916868;29;20052;-77
2023/06/19 08:21:24;;;;;;;2.10;1.67;;;;;;;25.92;42.22;96570.47;4917088;29;20052;-76
2023/06/19 08:23:52;;;;;;;1.65;1.55;;;;;;;25.94;42.19;96565.66;4916800;29;20056;-76
2023/06/19 08:26:20;;;;;;;2.38;1.73;;;;;;;25.93;42.53;96572.06;4916896;29;20056;-77
2023/06/19 08:28:47;;;;;;;1.55;1.45;;;;;;;25.90;42.55;96565.41;4917007;29;20485;-77
2023/06/19 08:31:16;;;;;;;4.22;1.98;;;;;;;25.89;42.63;96567.28;4916883;29;20485;-77
2023/06/19 08:33:44;;;;;;;2.58;1.83;;;;;;;25.94;42.58;96566.44;4916690;29;20051;-77
2023/06/19 08:36:12;;;;;;;1.58;1.30;;;;;;;26.05;42.54;96556.47;4916486;29;20143;-77
2023/06/19 08:38:40;;;;;;;2.38;1.98;;;;;;;26.17;42.19;96556.84;4916862;29;20056;-76
2023/06/19 08:41:08;;;;;;;2.20;1.77;;;;;;;26.27;41.92;96553.28;4916935;29;20052;-76
2023/06/19 08:43:35;;;;;;;1.77;1.38;;;;;;;26.34;41.51;96555.63;4917387;29;20056;-76
2023/06/19 08:46:12;;;;;;;1.58;1.48;;;;;;;26.39;41.29;96550.22;4916486;29;20048;-77
2023/06/19 08:48:41;;;;;;;1.90;1.70;;;;;;;26.49;40.80;96553.56;4917014;29;20132;-77
2023/06/19 08:51:10;;;;;;;2.10;2.00;;;;;;;26.60;41.02;96550.81;4916550;29;20095;-76
2023/06/19 08:53:45;;;;;;;3.97;1.98;;;;;;;26.70;41.00;96556.06;4916499;29;20056;-76
2023/06/19 08:56:13;;;;;;;2.50;1.73;;;;;;;26.76;40.88;96549.53;4916289;29;20127;-77
2023/06/19 08:58:41;;;;;;;2.45;1.67;;;;;;;26.86;40.99;96541.38;4916312;29;20060;-77
2023/06/19 09:01:08;;;;;;;2.03;1.83;;;;;;;26.99;40.55;96539.88;4916103;29;20060;-77
2023/06/19 09:03:36;;;;;;;3.17;2.10;;;;;;;27.15;40.56;96542.34;4916420;29;20080;-77
2023/06/19 09:06:07;;;;;;;1.67;1.58;;;;;;;27.28;40.16;96549.69;4915332;29;20048;-76
2023/06/19 09:08:35;;;;;;;1.50;1.40;;;;;;;27.39;39.66;96547.66;4916211;29;20096;-77
2023/06/19 09:11:04;;;;;;;1.70;1.60;;;;;;;27.52;39.14;96546.91;4916096;29;20052;-76
2023/06/19 09:13:34;;;;;;;1.75;1.65;;;;;;;27.69;38.66;96552.53;4916344;29;20080;-76
2023/06/19 09:16:03;;;;;;;1.65;1.55;;;;;;;27.83;37.55;96541.84;4915638;29;20052;-76
2023/06/19 09:18:31;;;;;;;1.80;1.50;;;;;;;27.87;37.99;96550.91;4916114;29;20429;-77
2023/06/19 09:21:16;;;;;;;1.50;1.40;;;;;;;27.88;38.08;96547.16;4981693;23;20036;-82
2023/06/19 09:23:59;;;;;;;1.75;1.30;;;;;;;27.86;37.57;96543.97;4980003;28;20042;-83
2023/06/19 09:26:39;;;;;;;1.67;1.40;;;;;;;27.79;38.32;96551.56;4979924;28;20078;-83
2023/06/19 09:29:22;;;;;;;2.20;1.80;;;;;;;27.70;38.53;96548.78;5138427;23;20043;-82
2023/06/19 09:31:56;;;;;;;1.50;1.40;;;;;;;27.62;38.73;96540.59;4980029;28;20054;-82
2023/06/19 09:34:43;;;;;;;2.65;1.50;;;;;;;27.59;38.43;96546.53;4980151;28;20043;-82
2023/06/19 09:37:32;;;;;;;1.42;1.33;;;;;;;27.58;38.52;96544.94;4979547;28;20035;-82
2023/06/19 09:40:13;;;;;;;;;;;;;;;27.58;38.71;96547.63;4979876;28;20058;-82
2023/06/19 09:43:01;;;;;;;1.70;1.60;;;;;;;27.60;39.01;96553.50;4979875;28;19914;-82
2023/06/19 09:45:40;;;;;;;1.90;1.75;;;;;;;27.60;39.10;96548.13;4979625;28;20031;-83
2023/06/19 09:48:17;;;;;;;2.45;1.40;;;;;;;27.62;39.01;96546.75;4979836;28;20039;-82
2023/06/19 09:50:55;;;;;;;3.05;1.50;;;;;;;27.67;39.03;96543.19;4986144;23;20042;-82
2023/06/19 09:53:33;;;;;;;1.75;1.65;;;;;;;27.71;39.11;96544.19;4979672;28;20035;-82
2023/06/19 09:56:24;;;;;;;2.08;1.52;;;;;;;27.74;38.75;96560.47;4979387;28;20053;-82
2023/06/19 09:59:01;;;;;;;1.70;1.45;;;;;;;27.76;38.50;96552.16;4979792;28;20067;-82
2023/06/19 10:01:40;;;;;;;1.50;1.40;;;;;;;27.79;38.57;96540.84;4979250;28;20070;-82
2023/06/19 10:58:04;;;;;;;;;;;;;;;29.73;35.59;96520.00;5657356;23;20027;-82
2023/06/19 11:00:35;;;;;;;2.38;1.60;;;;;;;29.81;35.14;96517.69;4984381;29;19913;-82
2023/06/19 11:03:07;;;;;;;2.45;1.50;;;;;;;29.83;35.31;96513.56;4984421;29;20032;-83
2023/06/19 11:05:36;;;;;;;1.88;1.73;;;;;;;29.86;34.92;96512.16;4984625;29;20031;-82
2023/06/19 11:08:04;;;;;;;2.83;1.80;;;;;;;29.84;35.12;96501.72;5499017;23;20031;-80
2023/06/19 11:10:34;;;;;;;1.70;1.60;;;;;;;29.83;34.54;96502.81;4984562;29;20032;-79
2023/06/19 11:13:06;;;;;;;1.88;1.77;;;;;;;29.78;35.04;96516.38;4984436;29;20027;-80
2023/06/19 11:15:36;;;;;;;3.15;1.95;;;;;;;29.72;35.43;96504.97;4984468;29;20032;-80
2023/06/19 11:18:07;;;;;;;2.85;1.83;;;;;;;29.69;35.07;96504.78;4984237;29;20038;-80
